Terminal Aerodrome Forecast
Issued by NWS Twin Cities, MN

Home | Current Version | Previous Version | Text Only | Print | Product List | Glossary Off
Versions: 1 2 3 4 5 6 7 8 9 10 11 12

000
FTUS43 KMPX 251133
TAFEAU
TAF
KEAU 251133Z 2512/2612 22003KT P6SM BKN250
     FM251700 27014G21KT P6SM FEW045
     FM260100 28006KT P6SM SKC
     FM261000 VRB02KT 2SM BR SKC=

USA.gov is the U.S. government's official web portal to all federal, state and local government web resources and services.